Terminal Aerodrome Forecast
Issued by NWS

Home | Current Version | Previous Version | Text Only | Print | Product List | Glossary On
Versions: 1 2 3 4 5 6 7 8 9 10 11 12 13
000
FTPQ31 PGUM 051120
TAFGUM
TAF

TAF
PTRO 051120Z 0512/0612 07007KT P6SM VCSH SCT016 SCT120 BKN300=

USA.gov is the U.S. government's official web portal to all federal, state and local government web resources and services.